Time;durP1;ratioP1;P1;durP2;ratioP2;P2;SDS_P1;SDS_P2;PMS_P1;PMS_P2;Temp;Humidity;BMP_temperature;BMP_pressure;BME280_temperature;BME280_humidity;BME280_pressure;Samples;Min_cycle;Max_cycle;Signal;HPM_P1;HPM_P2
2021/03/23 00:00:53;;;;;;;;;;;;;;;8.44;53.57;102178.13;4735687;30;19945;-71
2021/03/23 00:03:34;;;;;;;;;;;;;;;8.55;53.13;102176.28;4737473;30;20426;-71
2021/03/23 00:06:01;;;;;;;;;;;;;;;8.38;53.64;102178.38;4732315;30;19933;-72
2021/03/23 00:08:35;;;;;;;;;;;;;;;8.26;53.78;102178.56;4734393;30;19926;-70
2021/03/23 00:11:07;;;;;;;;;;;;;;;8.01;54.67;102172.81;4734474;30;19926;-68
2021/03/23 00:13:34;;;;;;;;;;;;;;;8.02;54.50;102176.41;4734328;30;19926;-67
2021/03/23 00:16:00;;;;;;;;;;;;;;;7.83;54.71;102174.00;4733102;30;19926;-68
2021/03/23 00:18:27;;;;;;;;;;;;;;;7.70;55.52;102177.19;4734678;30;19926;-68
2021/03/23 00:20:54;;;;;;;;;;;;;;;7.60;55.65;102177.06;4750420;30;19933;-71
2021/03/23 00:23:30;;;;;;;;;;;;;;;7.98;54.98;102171.41;4751982;30;19926;-68
2021/03/23 00:25:57;;;;;;;;;;;;;;;7.88;55.29;102176.81;4736296;30;20298;-69
2021/03/23 00:28:24;;;;;;;;;;;;;;;7.71;55.46;102175.25;4735615;30;19926;-66
2021/03/23 00:30:51;;;;;;;;;;;;;;;7.78;55.75;102175.88;4734604;30;19927;-68
2021/03/23 00:33:19;;;;;;;;;;;;;;;7.74;55.62;102174.75;4734434;30;19933;-68
2021/03/23 00:35:46;;;;;;;;;;;;;;;7.58;55.79;102171.00;4732730;30;19938;-69
2021/03/23 00:38:14;;;;;;;;;;;;;;;7.80;55.41;102180.03;4734041;30;20490;-68
2021/03/23 00:40:40;;;;;;;;;;;;;;;7.81;55.36;102175.38;4732412;30;19927;-69
2021/03/23 00:43:07;;;;;;;;;;;;;;;7.82;55.73;102175.13;4733683;30;19931;-70
2021/03/23 00:45:41;;;;;;;;;;;;;;;8.01;55.11;102172.81;4734413;30;19926;-71
2021/03/23 00:48:08;;;;;;;;;;;;;;;7.40;56.80;102173.28;4733233;30;20372;-68
2021/03/23 00:50:38;;;;;;;;;;;;;;;7.51;57.02;102183.28;4743568;30;19934;-69
2021/03/23 00:53:05;;;;;;;;;;;;;;;7.75;56.59;102173.66;4717950;30;19949;-69
2021/03/23 00:55:32;;;;;;;;;;;;;;;7.65;56.62;102174.38;4733134;30;19926;-70
2021/03/23 00:57:59;;;;;;;;;;;;;;;7.93;55.86;102171.38;4749870;30;19932;-71
2021/03/23 01:00:26;;;;;;;;;;;;;;;7.52;56.84;102177.53;4739726;30;20293;-70
2021/03/23 01:02:54;;;;;;;;;;;;;;;7.34;57.91;102182.53;4739950;30;19930;-71
2021/03/23 01:05:24;;;;;;;;;;;;;;;7.27;57.96;102171.75;4734241;30;19934;-69
2021/03/23 01:07:51;;;;;;;;;;;;;;;7.34;57.76;102177.06;4734009;30;19926;-70
2021/03/23 01:10:19;;;;;;;;;;;;;;;6.99;58.96;102182.09;4750138;30;19926;-71
2021/03/23 01:12:45;;;;;;;;;;;;;;;6.94;59.45;102190.25;4750972;30;20414;-71
2021/03/23 01:15:16;;;;;;;;;;;;;;;7.07;58.67;102187.97;4748535;30;19933;-70
2021/03/23 01:17:46;;;;;;;;;;;;;;;7.02;58.81;102170.63;4714109;30;19930;-71
2021/03/23 01:20:14;;;;;;;;;;;;;;;7.26;58.32;102172.00;4732594;30;19930;-72
2021/03/23 01:22:44;;;;;;;;;;;;;;;7.33;57.93;102164.44;4732993;30;19926;-71
2021/03/23 01:25:13;;;;;;;;;;;;;;;7.10;58.25;102178.38;4735687;30;19930;-70
2021/03/23 01:27:50;;;;;;;;;;;;;;;6.65;59.76;102173.13;4737545;30;19933;-70
2021/03/23 01:30:24;;;;;;;;;;;;;;;6.95;58.96;102168.09;4736867;30;19926;-70
2021/03/23 01:32:50;;;;;;;;;;;;;;;6.87;59.16;102168.50;4736180;30;20306;-71
2021/03/23 01:35:18;;;;;;;;;;;;;;;6.93;59.17;102164.75;4737333;30;19950;-69
2021/03/23 01:37:45;;;;;;;;;;;;;;;7.20;58.29;102167.56;4751840;30;20291;-70
2021/03/23 01:40:12;;;;;;;;;;;;;;;7.51;57.70;102170.41;4738959;30;19933;-70
2021/03/23 01:42:40;;;;;;;;;;;;;;;7.35;57.85;102165.84;4754843;30;19933;-70
2021/03/23 01:45:20;;;;;;;;;;;;;;;7.17;58.66;102170.81;4754753;30;19930;-70
2021/03/23 01:47:50;;;;;;;;;;;;;;;7.10;58.58;102181.13;4739253;30;19926;-70
2021/03/23 01:50:20;;;;;;;;;;;;;;;7.13;58.28;102180.63;4750765;30;19926;-71
2021/03/23 01:52:47;;;;;;;;;;;;;;;7.23;58.05;102165.16;4738309;30;19937;-72
2021/03/23 01:55:14;;;;;;;;;;;;;;;6.99;58.80;102171.94;4751904;30;20252;-71
2021/03/23 01:57:41;;;;;;;;;;;;;;;6.64;60.25;102172.28;4750652;30;20430;-69
2021/03/23 02:00:09;;;;;;;;;;;;;;;6.93;59.45;102166.66;4773016;30;20316;-68
2021/03/23 02:02:36;;;;;;;;;;;;;;;6.60;59.66;102173.91;4772758;30;19933;-71
2021/03/23 02:05:11;;;;;;;;;;;;;;;6.48;60.43;102180.56;4757020;30;20340;-71
2021/03/23 02:07:39;;;;;;;;;;;;;;;6.24;61.07;102174.41;4727845;30;20380;-71
2021/03/23 02:10:06;;;;;;;;;;;;;;;6.31;61.31;102174.28;4736991;30;19927;-70
2021/03/23 02:12:33;;;;;;;;;;;;;;;6.27;60.99;102175.84;4736887;30;19927;-71
2021/03/23 02:15:00;;;;;;;;;;;;;;;6.44;60.44;102168.44;4735394;30;19926;-71
2021/03/23 02:17:32;;;;;;;;;;;;;;;6.45;60.46;102173.66;4732861;30;19930;-69
2021/03/23 02:20:05;;;;;;;;;;;;;;;6.62;60.04;102168.16;4738815;30;19926;-68
2021/03/23 02:22:35;;;;;;;;;;;;;;;6.52;60.75;102170.75;4738271;30;20329;-70
2021/03/23 02:25:06;;;;;;;;;;;;;;;6.51;61.00;102169.94;4737682;30;19926;-67
2021/03/23 02:27:38;;;;;;;;;;;;;;;6.26;62.21;102171.47;4753350;30;19937;-69
2021/03/23 02:30:13;;;;;;;;;;;;;;;6.62;61.22;102170.91;4753127;30;19925;-67
2021/03/23 02:32:39;;;;;;;;;;;;;;;6.76;60.44;102173.00;4752100;30;20387;-69
2021/03/23 02:35:17;;;;;;;;;;;;;;;6.66;60.98;102174.78;4753862;30;19929;-70
2021/03/23 02:37:43;;;;;;;;;;;;;;;6.31;62.08;102174.28;4741203;30;20383;-70
2021/03/23 02:40:10;;;;;;;;;;;;;;;6.17;62.62;102181.16;4724060;30;19926;-69
2021/03/23 02:42:37;;;;;;;;;;;;;;;6.28;62.01;102170.09;4741720;30;19930;-69
2021/03/23 02:45:04;;;;;;;;;;;;;;;6.20;62.74;102176.00;4734849;30;20512;-71
2021/03/23 02:47:39;;;;;;;;;;;;;;;6.25;62.54;102178.00;4734377;30;19934;-71
2021/03/23 02:50:07;;;;;;;;;;;;;;;6.30;62.38;102178.06;4735273;30;19926;-71
2021/03/23 02:52:33;;;;;;;;;;;;;;;6.52;61.79;102177.03;4747065;30;19941;-70
2021/03/23 02:55:00;;;;;;;;;;;;;;;6.54;61.40;102168.56;4753350;30;20361;-71
2021/03/23 02:57:27;;;;;;;;;;;;;;;6.51;62.05;102178.13;4753345;30;19926;-69
2021/03/23 02:59:53;;;;;;;;;;;;;;;6.69;60.98;102175.09;4737805;30;19933;-69
2021/03/23 03:02:20;;;;;;;;;;;;;;;6.68;61.27;102176.19;4743843;30;19933;-69
2021/03/23 03:04:47;;;;;;;;;;;;;;;6.77;61.16;102177.44;4720146;30;19931;-69
2021/03/23 03:07:14;;;;;;;;;;;;;;;6.67;60.84;102169.06;4735666;30;19934;-67
2021/03/23 03:09:40;;;;;;;;;;;;;;;6.98;60.70;102170.31;4735530;30;19933;-71
2021/03/23 03:12:07;;;;;;;;;;;;;;;6.97;60.32;102165.91;4743037;30;19937;-71
2021/03/23 03:14:34;;;;;;;;;;;;;;;6.51;61.59;102175.41;4753524;30;19926;-71
2021/03/23 03:17:00;;;;;;;;;;;;;;;6.69;61.05;102168.81;4753366;30;20003;-72
2021/03/23 03:19:27;;;;;;;;;;;;;;;6.49;61.64;102168.50;4736937;30;20310;-72
2021/03/23 03:21:54;;;;;;;;;;;;;;;6.54;61.44;102166.69;4746891;30;19926;-69
2021/03/23 03:24:21;;;;;;;;;;;;;;;6.66;60.97;102172.88;4720405;30;20376;-71
2021/03/23 03:26:47;;;;;;;;;;;;;;;6.56;61.12;102163.69;4734127;30;19930;-70
2021/03/23 03:29:17;;;;;;;;;;;;;;;6.67;61.30;102169.06;4735712;30;19927;-71
2021/03/23 03:31:47;;;;;;;;;;;;;;;7.08;60.33;102175.91;4739922;30;19933;-70
2021/03/23 03:34:14;;;;;;;;;;;;;;;6.81;59.90;102175.00;4751615;30;20018;-72
2021/03/23 03:36:40;;;;;;;;;;;;;;;6.72;60.27;102176.53;4752186;30;19926;-71
2021/03/23 03:39:07;;;;;;;;;;;;;;;6.73;60.39;102165.31;4737519;30;20287;-70
2021/03/23 03:41:34;;;;;;;;;;;;;;;6.87;60.02;102163.03;4748014;30;20327;-70
2021/03/23 03:44:01;;;;;;;;;;;;;;;6.85;60.19;102165.22;4735083;30;19926;-67
2021/03/23 03:46:27;;;;;;;;;;;;;;;6.64;60.33;102164.09;4734431;30;19931;-73
2021/03/23 03:48:54;;;;;;;;;;;;;;;6.39;61.32;102163.72;4718835;30;20607;-70
2021/03/23 03:51:21;;;;;;;;;;;;;;;6.56;60.63;102166.44;4735579;30;20324;-71
2021/03/23 03:53:48;;;;;;;;;;;;;;;6.39;61.21;102169.19;4752766;30;19930;-70
2021/03/23 03:56:14;;;;;;;;;;;;;;;6.70;60.32;102164.97;4752663;30;19926;-69
2021/03/23 03:58:45;;;;;;;;;;;;;;;7.04;59.09;102163.81;4736990;30;19933;-68
2021/03/23 04:01:32;;;;;;;;;;;;;;;6.80;59.92;102165.97;4749956;30;19926;-69
2021/03/23 04:04:02;;;;;;;;;;;;;;;6.74;59.60;102161.50;4734809;30;19934;-71
2021/03/23 04:07:01;;;;;;;;;;;;;;;6.65;60.06;102160.28;4733732;30;20281;-69
2021/03/23 04:09:28;;;;;;;;;;;;;;;6.92;59.47;102163.13;4731405;30;19931;-70
2021/03/23 04:11:58;;;;;;;;;;;;;;;7.06;58.79;102150.66;4736763;30;19933;-72
2021/03/23 04:14:25;;;;;;;;;;;;;;;7.08;59.08;102158.66;4752244;30;20296;-69
2021/03/23 04:16:51;;;;;;;;;;;;;;;6.43;60.51;102153.09;4735971;30;19926;-70
2021/03/23 04:19:18;;;;;;;;;;;;;;;6.59;60.38;102157.72;4721820;30;19926;-70
2021/03/23 04:21:45;;;;;;;;;;;;;;;5.98;62.29;102163.31;4748797;30;19934;-70
2021/03/23 04:24:12;;;;;;;;;;;;;;;6.06;62.43;102158.28;4732846;30;19943;-70
2021/03/23 04:26:38;;;;;;;;;;;;;;;6.18;61.99;102159.00;4733103;30;19926;-69
2021/03/23 04:29:05;;;;;;;;;;;;;;;6.45;61.25;102159.16;4734540;30;19927;-69
2021/03/23 04:31:33;;;;;;;;;;;;;;;6.78;60.16;102161.84;4735706;30;20399;-70
2021/03/23 04:34:00;;;;;;;;;;;;;;;6.69;60.18;102164.16;4752250;30;19932;-70
2021/03/23 04:36:27;;;;;;;;;;;;;;;6.63;60.30;102165.19;4736267;30;19948;-70
2021/03/23 04:38:54;;;;;;;;;;;;;;;6.69;59.99;102169.63;4750225;30;20399;-70
2021/03/23 04:41:20;;;;;;;;;;;;;;;6.64;60.44;102164.09;4750090;30;19926;-70
2021/03/23 04:43:48;;;;;;;;;;;;;;;6.68;60.41;102167.13;4733982;30;19933;-71
2021/03/23 04:46:15;;;;;;;;;;;;;;;6.85;60.29;102159.75;4734293;30;19948;-73
2021/03/23 04:48:42;;;;;;;;;;;;;;;6.77;60.31;102163.72;4733294;30;19927;-70
2021/03/23 04:51:12;;;;;;;;;;;;;;;6.87;59.96;102160.28;4744918;30;20402;-70
2021/03/23 04:53:41;;;;;;;;;;;;;;;6.71;60.27;102158.44;4735507;30;19926;-69
2021/03/23 04:56:19;;;;;;;;;;;;;;;6.63;60.89;102159.69;4751367;30;19926;-70
2021/03/23 04:58:52;;;;;;;;;;;;;;;6.51;61.18;102158.97;4764505;30;20393;-71
2021/03/23 05:01:19;;;;;;;;;;;;;;;6.38;61.79;102169.47;4745505;30;19933;-69
2021/03/23 05:03:49;;;;;;;;;;;;;;;6.69;61.16;102161.41;4745180;30;19930;-69
2021/03/23 05:06:16;;;;;;;;;;;;;;;6.41;61.77;102163.47;4746077;30;19933;-69
2021/03/23 05:08:43;;;;;;;;;;;;;;;6.36;62.40;102161.47;4732528;30;19930;-67
2021/03/23 05:11:11;;;;;;;;;;;;;;;6.42;61.88;102170.59;4749997;30;19952;-69
2021/03/23 05:13:38;;;;;;;;;;;;;;;6.32;62.58;102162.22;4735717;30;19937;-70
2021/03/23 05:16:05;;;;;;;;;;;;;;;6.50;61.73;102165.50;4751391;30;19933;-70
2021/03/23 05:18:32;;;;;;;;;;;;;;;6.66;61.29;102163.81;4721141;30;19933;-69
2021/03/23 05:20:58;;;;;;;;;;;;;;;6.69;61.05;102157.88;4750684;30;19930;-69
2021/03/23 05:23:25;;;;;;;;;;;;;;;6.77;60.97;102160.16;4751443;30;19933;-68
2021/03/23 05:25:52;;;;;;;;;;;;;;;6.70;60.89;102162.25;4735407;30;19926;-68
2021/03/23 05:28:19;;;;;;;;;;;;;;;6.60;61.56;102168.44;4752121;30;20299;-67
2021/03/23 05:30:46;;;;;;;;;;;;;;;6.79;60.95;102163.47;4743965;30;20307;-71
2021/03/23 05:33:13;;;;;;;;;;;;;;;6.42;61.47;102168.69;4732265;30;20165;-70
2021/03/23 05:35:40;;;;;;;;;;;;;;;6.03;63.70;102168.88;4733091;30;20382;-72
2021/03/23 05:38:07;;;;;;;;;;;;;;;5.95;64.00;102167.38;4733961;30;19926;-70
2021/03/23 05:40:35;;;;;;;;;;;;;;;5.64;65.34;102165.16;4739488;30;19926;-69
2021/03/23 05:43:02;;;;;;;;;;;;;;;5.95;64.81;102161.06;4751483;30;19926;-71
2021/03/23 05:45:33;;;;;;;;;;;;;;;5.79;65.05;102170.06;4751483;30;19930;-70
2021/03/23 05:48:19;;;;;;;;;;;;;;;5.77;65.26;102166.75;4735084;30;19926;-70
2021/03/23 05:51:06;;;;;;;;;;;;;;;5.97;64.56;102167.97;4728268;30;19937;-72
2021/03/23 05:53:46;;;;;;;;;;;;;;;5.79;65.31;102170.06;4731468;30;20273;-70
2021/03/23 05:56:12;;;;;;;;;;;;;;;6.00;64.70;102167.44;4733956;30;19927;-69
2021/03/23 05:58:41;;;;;;;;;;;;;;;6.26;63.77;102164.06;4757810;30;19926;-70
2021/03/23 06:01:21;;;;;;;;;;;;;;;6.43;62.87;102161.31;4749558;30;19934;-73
2021/03/23 06:03:50;;;;;;;;;;;;;;;6.11;63.89;102162.97;4736772;30;19930;-72
2021/03/23 06:06:23;;;;;;;;;;;;;;;6.07;64.31;102157.19;4731651;30;19933;-70
2021/03/23 06:08:50;;;;;;;;;;;;;;;5.83;64.87;102163.88;4747589;30;19927;-71
2021/03/23 06:11:29;;;;;;;;;;;;;;;5.67;65.40;102164.66;4752370;30;20280;-73
2021/03/23 06:14:12;;;;;;;;;;;;;;;5.82;65.51;102175.88;4754853;30;19933;-71
2021/03/23 06:16:39;;;;;;;;;;;;;;;6.11;64.66;102174.75;4724573;30;19926;-72
2021/03/23 06:19:10;;;;;;;;;;;;;;;6.11;64.26;102172.03;4736635;30;19927;-73
2021/03/23 06:21:49;;;;;;;;;;;;;;;5.89;64.41;102178.47;4735507;30;20392;-72
2021/03/23 06:24:29;;;;;;;;;;;;;;;5.78;65.46;102174.69;4735801;30;19926;-72
2021/03/23 06:27:01;;;;;;;;;;;;;;;6.05;64.19;102173.00;4735732;30;19930;-73
2021/03/23 06:29:28;;;;;;;;;;;;;;;5.92;64.60;102178.81;4720888;30;19930;-74
2021/03/23 06:32:05;;;;;;;;;;;;;;;6.42;63.54;102178.81;4746138;30;19927;-71
2021/03/23 06:34:33;;;;;;;;;;;;;;;6.45;63.19;102186.53;4749497;30;19930;-72
2021/03/23 06:37:00;;;;;;;;;;;;;;;6.61;62.49;102181.03;4733369;30;19926;-71
2021/03/23 06:39:30;;;;;;;;;;;;;;;6.06;64.26;102187.50;4736346;30;19937;-71
2021/03/23 06:42:01;;;;;;;;;;;;;;;6.17;64.06;102181.97;4737092;30;19926;-72
2021/03/23 06:44:32;;;;;;;;;;;;;;;6.17;64.18;102181.97;4749798;30;20318;-70
2021/03/23 06:46:59;;;;;;;;;;;;;;;5.93;64.70;102194.13;4737214;30;20275;-70
2021/03/23 06:49:31;;;;;;;;;;;;;;;5.96;64.84;102188.19;4751734;30;19945;-70
2021/03/23 06:52:02;;;;;;;;;;;;;;;5.78;65.63;102185.63;4736565;30;19929;-70
2021/03/23 06:54:36;;;;;;;;;;;;;;;5.98;65.26;102204.34;4737715;30;19930;-71
2021/03/23 06:57:12;;;;;;;;;;;;;;;6.07;64.17;102200.09;4747727;30;19926;-71
2021/03/23 06:59:48;;;;;;;;;;;;;;;6.08;64.44;102196.31;4770648;30;19936;-71
2021/03/23 07:02:33;;;;;;;;;;;;;;;6.27;63.97;102195.00;4769804;30;20283;-71
2021/03/23 07:05:20;;;;;;;;;;;;;;;6.37;63.03;102197.88;4739080;30;19926;-71
2021/03/23 07:08:08;;;;;;;;;;;;;;;6.34;63.72;102198.38;4753810;30;20402;-69
2021/03/23 07:10:41;;;;;;;;;;;;;;;6.48;63.07;102195.06;4753006;30;19934;-68
2021/03/23 07:13:32;;;;;;;;;;;;;;;6.65;62.38;102192.28;4754693;30;19929;-68
2021/03/23 07:16:05;;;;;;;;;;;;;;;6.90;61.47;102195.41;4723847;30;19927;-69
2021/03/23 07:18:39;;;;;;;;;;;;;;;6.76;61.99;102194.91;4712200;30;20032;-70
2021/03/23 07:21:25;;;;;;;;;;;;;;;6.63;62.32;102194.44;4708163;30;20411;-72
2021/03/23 07:24:05;;;;;;;;;;;;;;;6.60;62.14;102189.50;4731340;30;19933;-68
2021/03/23 07:26:36;;;;;;;;;;;;;;;6.74;62.12;102190.78;4718706;30;20399;-71
2021/03/23 07:29:09;;;;;;;;;;;;;;;7.05;60.58;102197.50;4702010;30;20296;-68
2021/03/23 07:31:37;;;;;;;;;;;;;;;6.89;60.62;102184.72;4726403;30;20411;-70
2021/03/23 07:34:23;;;;;;;;;;;;;;;6.76;60.22;102192.19;4706257;30;19931;-69
2021/03/23 07:36:52;;;;;;;;;;;;;;;7.07;60.38;102198.91;4715584;30;19934;-71
2021/03/23 07:39:20;;;;;;;;;;;;;;;7.33;59.60;102184.44;4728107;30;19926;-68
2021/03/23 07:41:53;;;;;;;;;;;;;;;7.31;59.25;102194.00;4730005;30;19931;-68
2021/03/23 07:44:21;;;;;;;;;;;;;;;7.33;59.33;102195.41;4729023;30;19933;-68
2021/03/23 07:46:49;;;;;;;;;;;;;;;7.49;58.68;102186.28;4714525;30;19926;-69
2021/03/23 07:49:30;;;;;;;;;;;;;;;7.52;58.50;102188.50;4720457;30;19927;-67
2021/03/23 07:52:02;;;;;;;;;;;;;;;7.79;58.00;102192.06;4710225;30;20052;-67
2021/03/23 07:54:33;;;;;;;;;;;;;;;7.87;57.47;102191.63;4738099;30;19934;-69
2021/03/23 07:57:06;;;;;;;;;;;;;;;8.00;56.97;102187.63;4738729;30;19933;-66
2021/03/23 07:59:39;;;;;;;;;;;;;;;8.09;56.37;102196.22;4760195;30;19932;-67
2021/03/23 08:02:18;;;;;;;;;;;;;;;8.19;56.44;102194.38;4741051;30;19934;-67
2021/03/23 08:04:54;;;;;;;;;;;;;;;8.40;55.16;102192.66;4736128;30;20401;-67
2021/03/23 08:07:27;;;;;;;;;;;;;;;8.28;56.01;102183.78;4747891;30;20264;-67
2021/03/23 08:10:13;;;;;;;;;;;;;;;8.25;55.77;102190.59;4723429;30;20375;-67
2021/03/23 08:12:50;;;;;;;;;;;;;;;8.43;55.55;102190.22;4747429;30;19926;-67
2021/03/23 08:15:35;;;;;;;;;;;;;;;8.22;55.56;102187.53;4737342;30;19926;-68
2021/03/23 08:18:17;;;;;;;;;;;;;;;8.24;55.76;102186.22;4752379;30;19926;-69
2021/03/23 08:21:04;;;;;;;;;;;;;;;8.13;54.88;102183.59;4741379;30;20344;-70
2021/03/23 08:23:49;;;;;;;;;;;;;;;8.29;53.74;102188.16;4756177;30;19933;-70
2021/03/23 08:26:41;;;;;;;;;;;;;;;8.31;53.90;102188.75;4742410;30;19933;-68
2021/03/23 08:29:19;;;;;;;;;;;;;;;8.33;54.05;102190.16;4735560;30;19933;-69
2021/03/23 08:32:04;;;;;;;;;;;;;;;8.31;54.03;102186.00;4749315;30;19926;-70
2021/03/23 08:34:50;;;;;;;;;;;;;;;8.22;54.31;102182.88;4750828;30;19933;-70
2021/03/23 08:37:26;;;;;;;;;;;;;;;8.29;53.83;102188.16;4734113;30;19933;-70
2021/03/23 08:40:05;;;;;;;;;;;;;;;8.72;52.42;102196.16;4733573;30;19929;-67
2021/03/23 08:42:32;;;;;;;;;;;;;;;8.65;52.63;102190.06;4744929;30;19930;-70
2021/03/23 08:45:18;;;;;;;;;;;;;;;8.57;52.19;102193.31;4728225;30;19931;-73
2021/03/23 08:47:46;;;;;;;;;;;;;;;8.85;51.45;102190.22;4750974;30;20379;-69
2021/03/23 08:50:14;;;;;;;;;;;;;;;8.82;51.30;102191.56;4749065;30;19930;-71
2021/03/23 08:53:25;;;;;;;;;;;;;;;8.64;51.04;102188.44;4706584;30;19958;-69
2021/03/23 08:55:59;;;;;;;;;;;;;;;8.85;50.52;102185.56;4746553;30;19934;-71
2021/03/23 08:58:45;;;;;;;;;;;;;;;8.93;50.79;102184.19;4741975;30;19926;-73
2021/03/23 09:01:32;;;;;;;;;;;;;;;8.91;50.39;102189.13;4767450;30;20433;-68
2021/03/23 09:04:34;;;;;;;;;;;;;;;8.94;50.34;102191.38;4751916;30;19926;-69
2021/03/23 09:07:32;;;;;;;;;;;;;;;8.91;50.76;102189.13;4732494;30;19926;-70
2021/03/23 09:10:00;;;;;;;;;;;;;;;8.68;51.19;102192.31;4729363;30;19940;-67
2021/03/23 09:12:26;;;;;;;;;;;;;;;8.84;51.25;102188.53;4749546;30;20307;-68
2021/03/23 09:15:02;;;;;;;;;;;;;;;9.11;50.32;102200.25;4744872;30;19930;-68
2021/03/23 09:17:41;;;;;;;;;;;;;;;9.21;49.75;102194.78;4736709;30;19930;-68
2021/03/23 09:20:27;;;;;;;;;;;;;;;9.05;49.92;102201.31;4717519;30;19927;-66
2021/03/23 09:22:54;;;;;;;;;;;;;;;9.38;49.87;102197.34;4736379;30;19937;-69
2021/03/23 09:25:23;;;;;;;;;;;;;;;9.61;48.72;102203.19;4725057;30;20407;-69
2021/03/23 09:27:50;;;;;;;;;;;;;;;9.49;48.62;102204.50;4729914;30;19926;-71
2021/03/23 09:30:35;;;;;;;;;;;;;;;9.50;48.31;102212.50;4751393;30;19933;-70
2021/03/23 09:33:27;;;;;;;;;;;;;;;9.77;47.46;102206.78;4737005;30;19926;-70
2021/03/23 09:36:09;;;;;;;;;;;;;;;9.71;47.25;102205.16;4743847;30;19926;-67
2021/03/23 09:39:02;;;;;;;;;;;;;;;9.48;47.64;102206.47;4747112;30;19934;-69
2021/03/23 09:41:37;;;;;;;;;;;;;;;9.70;47.77;102208.97;4742703;30;20295;-70
2021/03/23 09:44:04;;;;;;;;;;;;;;;9.64;47.78;102202.63;4726281;30;19934;-71
2021/03/23 09:46:41;;;;;;;;;;;;;;;9.76;47.49;102205.16;4755577;30;19926;-70
2021/03/23 09:49:15;;;;;;;;;;;;;;;9.72;47.85;102209.53;4753857;30;20291;-73
2021/03/23 09:51:51;;;;;;;;;;;;;;;9.83;48.68;102205.72;4752278;30;19926;-71
2021/03/23 09:54:19;;;;;;;;;;;;;;;9.86;48.64;102203.25;4752554;30;19937;-69
2021/03/23 09:56:48;;;;;;;;;;;;;;;10.13;47.97;102200.28;4759145;30;19929;-69
2021/03/23 09:59:16;;;;;;;;;;;;;;;9.86;47.83;102202.41;4751081;30;19930;-70
2021/03/23 10:02:03;;;;;;;;;;;;;;;9.86;47.00;102197.75;4746576;30;19933;-70
2021/03/23 10:04:30;;;;;;;;;;;;;;;9.95;46.77;102195.28;4743685;30;19933;-70
2021/03/23 10:06:57;;;;;;;;;;;;;;;9.67;47.51;102204.88;4751143;30;20311;-68
2021/03/23 10:09:29;;;;;;;;;;;;;;;9.71;47.84;102205.94;4737042;30;19952;-68
2021/03/23 10:11:56;;;;;;;;;;;;;;;10.07;46.69;102206.84;4734361;30;19941;-70
2021/03/23 10:14:28;;;;;;;;;;;;;;;10.09;46.89;102200.00;4749677;30;19934;-68
2021/03/23 10:17:04;;;;;;;;;;;;;;;10.00;46.92;102196.13;4731242;30;19933;-69
2021/03/23 10:19:34;;;;;;;;;;;;;;;10.04;46.68;102199.16;4752232;30;20299;-68
2021/03/23 10:22:11;;;;;;;;;;;;;;;9.94;47.01;102204.63;4731511;30;19934;-68
2021/03/23 10:24:39;;;;;;;;;;;;;;;9.95;46.69;102211.81;4744867;30;20396;-68
2021/03/23 10:27:13;;;;;;;;;;;;;;;10.15;46.58;102200.81;4741944;30;19930;-69
2021/03/23 10:29:52;;;;;;;;;;;;;;;9.98;47.00;102201.06;4748246;30;20401;-68
2021/03/23 10:32:19;;;;;;;;;;;;;;;10.04;47.05;102199.97;4735497;30;19930;-68
2021/03/23 10:35:05;;;;;;;;;;;;;;;10.26;46.72;102194.22;4728612;30;19930;-69
2021/03/23 10:37:32;;;;;;;;;;;;;;;10.15;46.87;102190.66;4735800;30;19926;-69
2021/03/23 10:40:26;;;;;;;;;;;;;;;10.13;46.46;102195.59;4723052;30;19933;-68
2021/03/23 10:42:53;;;;;;;;;;;;;;;10.50;45.55;102183.47;4740776;30;20312;-72
2021/03/23 10:45:28;;;;;;;;;;;;;;;10.32;45.73;102182.09;4751578;30;19941;-70
2021/03/23 10:48:00;;;;;;;;;;;;;;;10.30;45.98;102177.97;4734049;30;20383;-70
2021/03/23 10:50:28;;;;;;;;;;;;;;;10.30;46.15;102183.50;4751711;30;19926;-69
2021/03/23 10:53:27;;;;;;;;;;;;;;;10.36;45.65;102187.88;4725704;30;19934;-70
2021/03/23 10:55:57;;;;;;;;;;;;;;;10.45;45.06;102180.72;4704741;30;19927;-69
2021/03/23 10:58:25;;;;;;;;;;;;;;;10.33;45.64;102178.25;4729930;30;20414;-70
2021/03/23 11:01:10;;;;;;;;;;;;;;;10.45;45.70;102178.78;4702546;30;19934;-68
2021/03/23 11:03:47;;;;;;;;;;;;;;;10.20;45.59;102174.13;4705773;30;20177;-68
2021/03/23 11:06:27;;;;;;;;;;;;;;;10.30;45.69;102170.56;4722167;30;19930;-70
2021/03/23 11:09:07;;;;;;;;;;;;;;;10.42;45.26;102168.34;4727685;30;20411;-73
2021/03/23 11:11:34;;;;;;;;;;;;;;;10.51;45.14;102168.59;4724890;30;19926;-69
2021/03/23 11:14:21;;;;;;;;;;;;;;;10.58;45.33;102167.22;4713304;30;20320;-70
2021/03/23 11:17:00;;;;;;;;;;;;;;;10.75;45.23;102164.16;4713112;30;19926;-70
2021/03/23 11:19:32;;;;;;;;;;;;;;;11.03;44.55;102166.25;4721084;30;19926;-68
2021/03/23 11:22:03;;;;;;;;;;;;;;;11.22;43.72;102150.75;4705343;30;19927;-70
2021/03/23 11:24:29;;;;;;;;;;;;;;;10.97;43.88;102148.91;4713214;30;20315;-72
2021/03/23 11:27:01;;;;;;;;;;;;;;;10.73;44.85;102156.16;4707997;30;19927;-70
2021/03/23 11:29:28;;;;;;;;;;;;;;;10.72;44.69;102160.00;4712617;30;19930;-70
2021/03/23 11:31:55;;;;;;;;;;;;;;;10.83;44.48;102150.59;4709456;30;20383;-70
2021/03/23 11:34:39;;;;;;;;;;;;;;;11.15;44.30;102159.31;4753865;30;20367;-69
2021/03/23 11:37:05;;;;;;;;;;;;;;;11.01;43.67;102152.75;4748314;30;19930;-71
2021/03/23 11:39:32;;;;;;;;;;;;;;;11.24;43.72;102141.06;4753178;30;19933;-69
2021/03/23 11:42:13;;;;;;;;;;;;;;;11.26;42.96;102149.06;4756802;30;20662;-69
2021/03/23 11:44:42;;;;;;;;;;;;;;;10.63;44.49;102139.66;4740754;30;19937;-72
2021/03/23 11:47:10;;;;;;;;;;;;;;;10.91;44.09;102140.94;4721998;30;19930;-68
2021/03/23 11:49:44;;;;;;;;;;;;;;;11.08;43.88;102131.22;4741642;30;19926;-71
2021/03/23 11:52:11;;;;;;;;;;;;;;;11.12;44.05;102134.25;4750860;30;19949;-71
2021/03/23 11:54:38;;;;;;;;;;;;;;;11.06;43.78;102138.13;4751014;30;20372;-71
2021/03/23 11:57:05;;;;;;;;;;;;;;;11.52;42.72;102124.94;4747051;30;19926;-72
2021/03/23 11:59:32;;;;;;;;;;;;;;;11.46;42.80;102128.81;4752588;30;20391;-71
2021/03/23 12:01:59;;;;;;;;;;;;;;;11.49;43.08;102129.06;4733508;30;19930;-69
2021/03/23 12:04:26;;;;;;;;;;;;;;;11.57;42.92;102122.13;4739231;30;19933;-70
2021/03/23 12:06:58;;;;;;;;;;;;;;;11.61;42.76;102123.22;4740348;30;19926;-71
2021/03/23 12:09:52;;;;;;;;;;;;;;;11.09;43.39;102124.59;4753232;30;19934;-70
2021/03/23 12:12:34;;;;;;;;;;;;;;;11.43;42.62;102121.09;4753582;30;19926;-69
2021/03/23 12:15:05;;;;;;;;;;;;;;;11.79;42.31;102112.34;4736327;30;20393;-71
2021/03/23 12:17:36;;;;;;;;;;;;;;;11.78;42.21;102118.16;4715722;30;19925;-72
2021/03/23 12:20:10;;;;;;;;;;;;;;;11.61;43.06;102109.41;4726961;30;19927;-73
2021/03/23 12:22:55;;;;;;;;;;;;;;;11.98;42.87;102106.94;4738974;30;20390;-72
2021/03/23 12:25:23;;;;;;;;;;;;;;;12.17;41.80;102105.94;4742494;30;19933;-73
2021/03/23 12:27:53;;;;;;;;;;;;;;;12.26;41.92;102109.72;4751395;30;19925;-72
2021/03/23 12:30:23;;;;;;;;;;;;;;;12.31;41.52;102106.06;4757404;30;19925;-73
2021/03/23 12:32:51;;;;;;;;;;;;;;;12.46;41.37;102095.69;4749076;30;20627;-72
2021/03/23 12:35:19;;;;;;;;;;;;;;;12.26;41.83;102093.16;4736546;30;19944;-71
2021/03/23 12:37:47;;;;;;;;;;;;;;;12.43;40.65;102089.94;4746643;30;20429;-72
2021/03/23 12:40:15;;;;;;;;;;;;;;;12.55;41.40;102089.53;4726839;30;19930;-71
2021/03/23 12:42:48;;;;;;;;;;;;;;;12.60;41.80;102087.56;4747927;30;19933;-69
2021/03/23 12:45:31;;;;;;;;;;;;;;;12.64;41.10;102091.34;4749704;30;19938;-71
2021/03/23 12:48:01;;;;;;;;;;;;;;;12.75;40.39;102081.00;4741430;30;19929;-71
2021/03/23 12:50:29;;;;;;;;;;;;;;;12.55;41.27;102075.72;4762218;30;20326;-69
2021/03/23 12:52:58;;;;;;;;;;;;;;;12.67;40.76;102076.13;4750646;30;19933;-70
2021/03/23 12:55:29;;;;;;;;;;;;;;;12.63;40.50;102067.59;4721856;30;19926;-70
2021/03/23 12:57:56;;;;;;;;;;;;;;;12.64;40.85;102066.47;4726867;30;19930;-71
2021/03/23 13:00:25;;;;;;;;;;;;;;;12.95;40.62;102070.53;4749858;30;19926;-70
2021/03/23 13:02:53;;;;;;;;;;;;;;;12.98;40.20;102056.09;4729506;30;19941;-71
2021/03/23 13:05:20;;;;;;;;;;;;;;;12.75;40.83;102050.59;4738950;30;20415;-70
2021/03/23 13:07:54;;;;;;;;;;;;;;;12.64;40.85;102049.88;4735091;30;19934;-70
2021/03/23 13:10:24;;;;;;;;;;;;;;;12.69;40.35;102047.09;4735173;30;19930;-71